Hovedside
METAR-TAF:

METAR-TAF

Lufthavner :

Östersund-Frösön, Sverige

Åre Östersund lufthavn

breddegrad: 63-11N, lengdegrad: 014-30E, høyde over havet: 376 m

Gjeldene værobservasjon

Denne rapporten ble laget for 33 minutter siden, klokken 21:20 UTC
Vind 4 kt fra Sør-sørøst, skiftende mellom Øst-sørøst og Sør-sørvest
Temperatur 12°C
Luftfuktighet 100%
Trykk 1007 hPa
Sikt 10 km eller mer

METAR: ESNZ 182120Z AUTO 16004KT 120V200 9999 OVC004/// 12/12 Q1007

Tid: 23:53 (21:53 UTC)

Varsel

Denne rapporten ble laget for 1 time og 59 minutter siden, klokken 19:54 UTC
Varsel gyldig fra 18. klokken 19 UTC til 18. klokken 21 UTC
Vind 8 kt fra Sørøst
Sikt: 7000 m
Brutte skyer i en høyde av 1500 ft
dis
Sannsynlighet 40%
fra 18. klokken 19 UTC til 18. klokken 21 UTC
Sikt: 2000 m
Brutte skyer i en høyde av 400 ft
lett duskregn

TAF: ESNZ 181954Z 1819/1821 14008KT 7000 BR BKN015 PROB40 1819/1821 2000 -DZ BKN004

Værobservasjoner og værvarsel for over 4000 flyplasser (METAR- og TAF-rapporter).

Tilgjengelige stasjoner er representert av de røde og gule prikkene på kartet.

Hold musepekeren over prikken for å se navnet på stasjonen.

Klikk så for å se værobservasjoner og -varsler.

For å forandre kartet kan du klikke på den grønne knappen med svart kryss for å zoome inn, på den grønne knappen med strek for å zoome ut, eller på de grønne pilene for å se tilstøtende kart.


METAR-TAF: